createdAt,value
2018-12-12T00:00:59.338Z,6.40
2018-12-12T00:03:28.177Z,6.60
2018-12-12T00:05:57.019Z,6.70
2018-12-12T00:08:25.860Z,6.70
2018-12-12T00:10:54.749Z,6.60
2018-12-12T00:13:23.606Z,6.20
2018-12-12T00:15:52.472Z,6.10
2018-12-12T00:18:21.507Z,6.00
2018-12-12T00:20:50.371Z,5.90
2018-12-12T00:23:19.301Z,5.90
2018-12-12T00:25:48.206Z,5.80
2018-12-12T00:28:17.035Z,5.80
2018-12-12T00:30:45.895Z,5.70
2018-12-12T00:33:14.746Z,5.80
2018-12-12T00:35:43.602Z,6.00
2018-12-12T00:38:12.552Z,6.10
2018-12-12T00:40:41.404Z,6.20
2018-12-12T00:43:10.282Z,6.20
2018-12-12T00:45:39.157Z,6.30
2018-12-12T00:48:08.022Z,6.40
2018-12-12T00:50:36.892Z,6.60
2018-12-12T00:53:05.770Z,6.60
2018-12-12T00:55:34.714Z,6.60
2018-12-12T00:58:03.986Z,6.50
2018-12-12T01:00:32.986Z,6.40
2018-12-12T01:03:01.955Z,6.30
2018-12-12T01:05:30.913Z,6.30
2018-12-12T01:07:59.843Z,6.20
2018-12-12T01:10:28.801Z,6.20
2018-12-12T01:12:57.748Z,6.20
2018-12-12T01:15:26.711Z,6.30
2018-12-12T01:17:55.561Z,6.50
2018-12-12T01:20:24.436Z,6.50
2018-12-12T01:22:53.311Z,6.50
2018-12-12T01:25:22.232Z,6.60
2018-12-12T01:27:51.122Z,6.50
2018-12-12T01:30:19.998Z,6.50
2018-12-12T01:32:48.955Z,6.70
2018-12-12T01:35:17.756Z,6.60
2018-12-12T01:37:46.631Z,6.60
2018-12-12T01:40:15.451Z,6.60
2018-12-12T01:42:44.416Z,6.60
2018-12-12T01:45:13.230Z,6.80
2018-12-12T01:47:42.081Z,6.60
2018-12-12T01:50:10.932Z,6.60
2018-12-12T01:52:39.927Z,6.60
2018-12-12T01:55:08.796Z,6.50
2018-12-12T01:57:37.756Z,6.50
2018-12-12T02:00:06.683Z,6.40
2018-12-12T02:02:35.579Z,6.40
2018-12-12T02:05:04.670Z,6.40
2018-12-12T02:07:33.571Z,6.30
2018-12-12T02:10:02.435Z,6.40
2018-12-12T02:12:31.310Z,6.40
2018-12-12T02:15:00.191Z,6.30
2018-12-12T02:17:29.097Z,6.30
2018-12-12T02:19:58.044Z,6.30
2018-12-12T02:22:26.935Z,6.40
2018-12-12T02:24:55.824Z,6.30
2018-12-12T02:27:25.003Z,6.40
2018-12-12T02:29:53.878Z,6.40
2018-12-12T02:32:22.756Z,6.30
2018-12-12T02:34:52.007Z,6.40
2018-12-12T02:37:20.884Z,6.30
2018-12-12T02:39:49.753Z,6.40
2018-12-12T02:42:18.637Z,6.60
2018-12-12T02:44:47.514Z,6.60
2018-12-12T02:47:16.376Z,6.50
2018-12-12T02:49:45.229Z,6.50
2018-12-12T02:52:14.199Z,6.30
2018-12-12T02:54:43.113Z,6.40
2018-12-12T02:57:12.102Z,6.30
2018-12-12T02:59:40.978Z,6.30
2018-12-12T03:02:09.857Z,6.30
2018-12-12T03:04:38.734Z,6.30
2018-12-12T03:07:07.675Z,6.30
2018-12-12T03:09:36.531Z,6.30
2018-12-12T03:12:05.373Z,6.30
2018-12-12T03:14:34.288Z,6.30
2018-12-12T03:17:05.275Z,6.20
2018-12-12T03:19:35.144Z,6.30
2018-12-12T03:22:04.178Z,6.30
2018-12-12T03:24:33.082Z,6.40
2018-12-12T03:27:01.983Z,6.30
2018-12-12T03:29:30.842Z,6.40
2018-12-12T03:31:59.769Z,6.40
2018-12-12T03:34:28.677Z,6.40
2018-12-12T03:36:57.589Z,6.40
2018-12-12T03:39:26.787Z,6.60
2018-12-12T03:41:55.930Z,6.80
2018-12-12T03:44:25.002Z,6.90
2018-12-12T03:46:53.850Z,6.90
2018-12-12T03:49:22.753Z,6.90
2018-12-12T03:51:51.658Z,6.60
2018-12-12T03:54:20.522Z,6.50
2018-12-12T03:56:51.247Z,6.50
2018-12-12T03:59:21.340Z,6.40
2018-12-12T04:01:50.711Z,6.30
2018-12-12T04:04:20.013Z,6.30
2018-12-12T04:06:48.917Z,6.30
2018-12-12T04:09:18.674Z,6.20
2018-12-12T04:11:47.888Z,6.30
2018-12-12T04:14:17.024Z,6.30
2018-12-12T04:16:46.957Z,6.30
2018-12-12T04:19:16.341Z,6.20
2018-12-12T04:21:46.014Z,6.20
2018-12-12T04:24:16.237Z,6.30
2018-12-12T04:26:46.154Z,6.30
2018-12-12T04:29:16.231Z,6.20
2018-12-12T04:31:45.841Z,6.20
2018-12-12T04:34:15.768Z,6.40
2018-12-12T04:36:45.577Z,6.50
2018-12-12T04:39:15.298Z,6.40
2018-12-12T04:41:45.222Z,6.40
2018-12-12T04:44:15.104Z,6.50
2018-12-12T04:46:44.973Z,6.70
2018-12-12T04:49:14.793Z,6.80
2018-12-12T04:51:44.580Z,6.80
2018-12-12T04:54:14.417Z,6.90
2018-12-12T04:56:45.435Z,6.60
2018-12-12T04:59:15.722Z,6.60
2018-12-12T05:01:45.823Z,6.60
2018-12-12T05:04:15.725Z,6.50
2018-12-12T05:06:47.159Z,6.60
2018-12-12T05:09:17.054Z,6.90
2018-12-12T05:11:47.072Z,6.80
2018-12-12T05:14:15.899Z,6.80
2018-12-12T05:16:44.791Z,6.70
2018-12-12T05:19:13.721Z,6.80
2018-12-12T05:21:42.615Z,6.70
2018-12-12T05:24:11.560Z,6.70
2018-12-12T05:26:40.421Z,6.70
2018-12-12T05:29:09.350Z,6.70
2018-12-12T05:31:38.369Z,6.60
2018-12-12T05:34:07.250Z,6.40
2018-12-12T05:36:36.251Z,6.40
2018-12-12T05:39:07.374Z,6.60
2018-12-12T05:41:38.252Z,6.70
2018-12-12T05:44:07.860Z,6.70
2018-12-12T05:46:41.821Z,6.30
2018-12-12T05:49:07.630Z,6.20
2018-12-12T05:51:36.585Z,6.50
2018-12-12T05:54:05.453Z,6.20
2018-12-12T05:56:34.323Z,6.50
2018-12-12T05:59:03.507Z,6.60
2018-12-12T06:01:32.464Z,6.70
2018-12-12T06:04:01.314Z,6.70
2018-12-12T06:06:30.501Z,6.90
2018-12-12T06:08:59.371Z,6.90
2018-12-12T06:11:28.277Z,6.90
2018-12-12T06:13:57.163Z,6.90
2018-12-12T06:16:26.450Z,6.90
2018-12-12T06:18:55.422Z,7.00
2018-12-12T06:21:24.351Z,6.90
2018-12-12T06:23:53.296Z,7.00
2018-12-12T06:26:22.955Z,7.00
2018-12-12T06:28:51.853Z,6.80
2018-12-12T06:31:20.814Z,6.60
2018-12-12T06:33:49.702Z,6.50
2018-12-12T06:36:20.500Z,6.70
2018-12-12T06:38:49.998Z,6.70
2018-12-12T06:41:18.888Z,6.60
2018-12-12T06:43:47.766Z,6.70
2018-12-12T06:46:16.614Z,6.70
2018-12-12T06:48:45.525Z,6.60
2018-12-12T06:51:16.146Z,6.40
2018-12-12T06:53:45.006Z,6.10
2018-12-12T06:56:13.972Z,5.90
2018-12-12T06:58:42.935Z,5.80
2018-12-12T07:01:11.850Z,5.80
2018-12-12T07:03:40.718Z,5.70
2018-12-12T07:06:09.608Z,5.70
2018-12-12T07:08:38.531Z,5.80
2018-12-12T07:11:07.482Z,5.80
2018-12-12T07:13:36.361Z,5.80
2018-12-12T07:16:05.529Z,5.70
2018-12-12T07:18:34.420Z,5.80
2018-12-12T07:21:03.380Z,5.80
2018-12-12T07:23:32.362Z,5.70
2018-12-12T07:26:01.294Z,5.70
2018-12-12T07:28:30.291Z,5.80
2018-12-12T07:30:59.199Z,5.70
2018-12-12T07:33:28.068Z,5.70
2018-12-12T07:35:59.626Z,5.70
2018-12-12T07:38:27.894Z,5.80
2018-12-12T07:40:56.771Z,5.80
2018-12-12T07:43:25.780Z,5.80
2018-12-12T07:45:54.816Z,5.80
2018-12-12T07:48:23.780Z,6.00
2018-12-12T07:50:52.718Z,6.00
2018-12-12T07:53:21.725Z,5.90
2018-12-12T07:55:50.574Z,6.00
2018-12-12T07:58:19.461Z,6.10
2018-12-12T08:00:48.366Z,6.10
2018-12-12T08:03:17.254Z,6.20
2018-12-12T08:05:46.203Z,6.20
2018-12-12T08:08:15.419Z,6.30
2018-12-12T08:10:44.342Z,6.30
2018-12-12T08:13:13.235Z,6.20
2018-12-12T08:15:42.102Z,6.30
2018-12-12T08:18:10.988Z,6.40
2018-12-12T08:20:39.868Z,6.40
2018-12-12T08:23:09.272Z,6.40
2018-12-12T08:25:38.956Z,6.20
2018-12-12T08:28:07.806Z,6.20
2018-12-12T08:30:36.691Z,6.20
2018-12-12T08:33:10.937Z,6.30
2018-12-12T12:58:26.605Z,7.70
2018-12-12T13:00:55.486Z,7.70
2018-12-12T13:03:24.353Z,7.70
2018-12-12T13:05:53.173Z,7.80
2018-12-12T13:08:22.497Z,7.80
2018-12-12T13:10:51.478Z,7.80
2018-12-12T13:13:21.191Z,7.90
2018-12-12T13:15:50.631Z,7.90
2018-12-12T13:18:19.679Z,8.00
2018-12-12T13:20:49.748Z,8.10
2018-12-12T13:23:18.593Z,8.10
2018-12-12T13:25:47.623Z,8.10
2018-12-12T13:28:16.466Z,8.20
2018-12-12T13:30:46.374Z,8.20
2018-12-12T13:33:15.370Z,8.30
2018-12-12T13:35:44.204Z,8.20
2018-12-12T13:38:13.138Z,8.10
2018-12-12T13:40:41.996Z,8.20
2018-12-12T13:43:10.934Z,8.20
2018-12-12T13:45:39.863Z,8.30
2018-12-12T13:48:09.756Z,8.40
2018-12-12T13:50:38.628Z,8.30
2018-12-12T13:53:07.478Z,8.20
2018-12-12T13:55:36.362Z,8.30
2018-12-12T13:58:05.734Z,8.20
2018-12-12T14:00:39.070Z,8.30
2018-12-12T14:03:07.603Z,8.20
2018-12-12T14:05:37.082Z,8.20
2018-12-12T14:08:06.067Z,8.20
2018-12-12T14:10:36.549Z,8.30
2018-12-12T14:13:06.299Z,8.30
2018-12-12T14:15:35.139Z,8.10
2018-12-12T14:18:04.171Z,8.30
2018-12-12T14:20:33.025Z,8.30
2018-12-12T14:23:01.934Z,8.30
2018-12-12T14:25:30.806Z,8.20
2018-12-12T14:27:59.705Z,8.30
2018-12-12T14:30:28.663Z,8.30
2018-12-12T14:32:57.606Z,8.20
2018-12-12T14:35:26.556Z,8.20
2018-12-12T14:37:55.434Z,8.00
2018-12-12T14:40:24.387Z,8.00
2018-12-12T14:42:53.252Z,8.10
2018-12-12T14:45:22.113Z,8.20
2018-12-12T14:47:51.612Z,8.30
2018-12-12T14:50:20.511Z,8.20
2018-12-12T14:52:49.371Z,8.30
2018-12-12T14:55:18.773Z,8.30
2018-12-12T14:57:47.631Z,8.40
2018-12-12T15:00:16.518Z,8.30
2018-12-12T15:02:45.433Z,8.30
2018-12-12T15:11:14.986Z,8.20
2018-12-12T15:13:43.823Z,8.20
2018-12-12T15:16:12.690Z,8.20
2018-12-12T15:18:41.608Z,8.00
2018-12-12T15:21:10.525Z,8.10
2018-12-12T15:23:39.393Z,8.10
2018-12-12T15:26:08.237Z,8.10
2018-12-12T15:28:37.068Z,8.00
2018-12-12T15:31:05.927Z,8.10
2018-12-12T15:33:34.808Z,8.10
2018-12-12T15:36:04.793Z,8.10
2018-12-12T15:38:33.613Z,8.10
2018-12-12T15:41:02.468Z,8.10
2018-12-12T15:43:31.317Z,8.10
2018-12-12T15:46:00.190Z,8.00
2018-12-12T15:48:29.089Z,8.10
2018-12-12T15:50:57.968Z,8.10
2018-12-12T15:53:26.797Z,8.20
2018-12-12T15:55:55.621Z,8.20
2018-12-12T15:58:24.445Z,8.00
2018-12-12T16:00:53.334Z,8.20
2018-12-12T16:03:22.264Z,8.10
2018-12-12T16:05:51.100Z,8.10
2018-12-12T16:08:19.942Z,8.10
2018-12-12T16:10:48.777Z,8.10
2018-12-12T16:13:17.628Z,8.00
2018-12-12T16:15:47.335Z,8.00
2018-12-12T16:18:16.185Z,8.10
2018-12-12T16:20:45.017Z,8.20
2018-12-12T16:23:13.861Z,8.20
2018-12-12T16:25:42.707Z,8.10
2018-12-12T16:28:11.522Z,8.10
2018-12-12T16:30:40.371Z,8.30
2018-12-12T16:33:09.215Z,8.30
2018-12-12T16:35:38.058Z,8.20
2018-12-12T16:38:06.926Z,8.10
2018-12-12T16:40:35.786Z,8.20
2018-12-12T16:43:04.716Z,8.30
2018-12-12T16:45:33.565Z,8.30
2018-12-12T16:48:02.394Z,8.20
2018-12-12T16:50:31.252Z,8.30
2018-12-12T16:53:00.167Z,8.30
2018-12-12T16:55:29.575Z,8.30
2018-12-12T16:57:58.460Z,8.30
2018-12-12T17:00:27.365Z,8.30
2018-12-12T17:02:56.293Z,8.30
2018-12-12T17:05:25.177Z,8.30
2018-12-12T17:07:54.063Z,8.10
2018-12-12T17:10:22.979Z,8.20
2018-12-12T17:12:51.862Z,8.10
2018-12-12T17:16:24.278Z,8.10
2018-12-12T17:18:53.273Z,8.10
2018-12-12T17:21:22.145Z,8.20
2018-12-12T17:23:51.014Z,8.00
2018-12-12T17:26:19.947Z,8.20
2018-12-12T17:28:48.804Z,8.20
2018-12-12T17:31:17.685Z,8.30
2018-12-12T17:33:46.520Z,8.10
2018-12-12T17:36:15.422Z,8.10
2018-12-12T17:38:44.318Z,8.20
2018-12-12T17:41:13.202Z,7.90
2018-12-12T17:43:42.176Z,7.70
2018-12-12T17:46:11.020Z,7.50
2018-12-12T17:48:39.910Z,7.50
2018-12-12T17:51:08.803Z,7.80
2018-12-12T17:53:37.669Z,7.80
2018-12-12T17:56:06.541Z,7.50
2018-12-12T17:58:35.425Z,7.60
2018-12-12T18:01:04.573Z,7.70
2018-12-12T18:03:33.521Z,7.70
2018-12-12T18:06:02.452Z,7.80
2018-12-12T18:08:31.331Z,7.90
2018-12-12T18:11:00.216Z,8.00
2018-12-12T18:13:29.095Z,7.90
2018-12-12T18:15:57.978Z,8.00
2018-12-12T18:18:26.813Z,8.10
2018-12-12T18:20:55.729Z,8.00
2018-12-12T18:23:24.939Z,7.90
2018-12-12T18:25:53.815Z,8.00
2018-12-12T18:28:22.669Z,8.10
2018-12-12T18:30:51.548Z,8.10
2018-12-12T18:33:20.380Z,8.00
2018-12-12T18:35:49.303Z,8.00
2018-12-12T18:38:18.186Z,8.00
2018-12-12T18:40:47.081Z,8.00
2018-12-12T18:43:15.959Z,8.00
2018-12-12T18:45:44.850Z,8.00
2018-12-12T18:48:13.776Z,7.90
2018-12-12T18:50:42.696Z,7.90
2018-12-12T18:53:11.985Z,7.90
2018-12-12T18:55:43.384Z,7.80
2018-12-12T18:58:12.267Z,7.90
2018-12-12T19:00:41.201Z,7.80
2018-12-12T19:03:10.113Z,7.80
2018-12-12T19:05:39.002Z,7.70
2018-12-12T19:08:07.924Z,7.70
2018-12-12T19:10:36.829Z,7.60
2018-12-12T19:13:05.711Z,7.70
2018-12-12T19:15:34.627Z,7.60
2018-12-12T19:18:03.656Z,7.50
2018-12-12T19:20:32.553Z,7.60
2018-12-12T19:23:01.998Z,7.50
2018-12-12T19:25:30.965Z,7.60
2018-12-12T19:27:59.855Z,7.70
2018-12-12T19:30:28.808Z,7.50
2018-12-12T19:32:57.704Z,7.60
2018-12-12T19:35:26.792Z,7.60
2018-12-12T19:37:55.825Z,7.50
2018-12-12T19:40:24.751Z,7.50
2018-12-12T19:42:53.731Z,7.40
2018-12-12T19:45:23.678Z,7.40
2018-12-12T19:47:52.728Z,7.40
2018-12-12T19:50:21.577Z,7.50
2018-12-12T19:52:50.503Z,7.60
2018-12-12T19:55:19.409Z,7.50
2018-12-12T19:57:48.345Z,7.60
2018-12-12T20:00:17.704Z,7.50
2018-12-12T20:02:46.682Z,7.50
2018-12-12T20:05:16.861Z,7.50
2018-12-12T20:07:46.294Z,7.40
2018-12-12T20:10:15.583Z,7.40
2018-12-12T20:12:44.598Z,7.40
2018-12-12T20:15:19.030Z,7.30
2018-12-12T20:17:48.542Z,7.40
2018-12-12T20:20:17.922Z,7.40
2018-12-12T20:22:47.597Z,7.40
2018-12-12T20:25:16.757Z,7.40
2018-12-12T20:27:46.130Z,7.40
2018-12-12T20:30:15.350Z,7.20
2018-12-12T20:32:44.231Z,7.30
2018-12-12T20:35:13.236Z,7.50
2018-12-12T20:37:42.325Z,7.50
2018-12-12T20:40:11.321Z,7.30
2018-12-12T20:42:40.378Z,7.10
2018-12-12T20:45:09.288Z,6.80
2018-12-12T20:47:38.367Z,6.60
2018-12-12T20:50:08.144Z,6.60
2018-12-12T20:52:37.273Z,6.90
2018-12-12T20:55:06.359Z,6.50
2018-12-12T20:57:35.416Z,6.60
2018-12-12T21:00:04.775Z,6.30
2018-12-12T21:02:33.768Z,6.30
2018-12-12T21:05:03.195Z,6.40
2018-12-12T21:07:32.190Z,6.60
2018-12-12T21:10:01.095Z,6.50
2018-12-12T21:12:29.987Z,6.30
2018-12-12T21:14:58.949Z,6.10
2018-12-12T21:17:28.162Z,5.80
2018-12-12T21:19:57.163Z,6.00
2018-12-12T21:22:26.093Z,6.30
2018-12-12T21:24:55.028Z,6.40
2018-12-12T21:27:24.138Z,6.60
2018-12-12T21:29:53.461Z,6.60
2018-12-12T21:32:22.405Z,6.40
2018-12-12T21:34:53.429Z,6.30
2018-12-12T21:37:22.281Z,6.40
2018-12-12T21:39:51.232Z,6.50
2018-12-12T21:42:20.138Z,6.70
2018-12-12T21:44:48.985Z,6.70
2018-12-12T21:47:17.981Z,6.40
2018-12-12T21:49:46.807Z,6.50
2018-12-12T21:52:15.685Z,6.50
2018-12-12T21:54:44.727Z,6.60
2018-12-12T21:57:13.731Z,6.50
2018-12-12T21:59:42.673Z,6.30
2018-12-12T22:02:11.648Z,6.40
2018-12-12T22:04:40.647Z,6.60
2018-12-12T22:07:09.575Z,6.70
2018-12-12T22:09:38.504Z,6.80
2018-12-12T22:12:07.506Z,6.70
2018-12-12T22:14:36.486Z,6.80
2018-12-12T22:17:05.411Z,6.80
2018-12-12T22:19:34.280Z,6.60
2018-12-12T22:22:03.285Z,6.70
2018-12-12T22:24:32.145Z,6.60
2018-12-12T22:27:01.522Z,6.30
2018-12-12T22:29:30.586Z,6.40
2018-12-12T22:31:59.495Z,6.30
2018-12-12T22:34:29.619Z,6.30
2018-12-12T22:36:58.487Z,6.30
2018-12-12T22:39:27.356Z,6.40
2018-12-12T22:41:56.304Z,6.40
2018-12-12T22:44:25.231Z,6.50
2018-12-12T22:46:54.451Z,6.40
2018-12-12T22:49:24.282Z,6.50
2018-12-12T22:51:53.270Z,6.50
2018-12-12T22:54:22.169Z,6.60
2018-12-12T22:56:51.015Z,6.50
2018-12-12T22:59:19.905Z,6.50
2018-12-12T23:01:48.874Z,6.50
2018-12-12T23:04:17.730Z,6.60
2018-12-12T23:06:46.594Z,6.50
2018-12-12T23:09:15.616Z,6.40
2018-12-12T23:11:44.429Z,6.50
2018-12-12T23:14:13.503Z,6.40
2018-12-12T23:16:42.405Z,6.50
2018-12-12T23:19:11.230Z,6.50
2018-12-12T23:21:40.118Z,6.60
2018-12-12T23:24:08.944Z,6.50
2018-12-12T23:26:37.823Z,6.30
2018-12-12T23:29:06.697Z,6.30
2018-12-12T23:31:35.573Z,6.40
2018-12-12T23:34:04.538Z,6.40
2018-12-12T23:36:33.385Z,6.30
2018-12-12T23:39:02.344Z,6.40
2018-12-12T23:41:31.210Z,6.50
2018-12-12T23:44:00.183Z,6.40
2018-12-12T23:46:28.992Z,6.40
2018-12-12T23:48:57.833Z,6.30
2018-12-12T23:51:26.699Z,6.30
2018-12-12T23:53:55.610Z,6.30
2018-12-12T23:56:24.608Z,6.20
2018-12-12T23:58:53.489Z,6.00
